| time (UTC) | temp C | wind direction | speed KPH | gust KPH | rain 1hr cm | rain 24hr cm | rain mn cm | humidity % | barometer mb |
| 20260507213925 | 13 | 291 | 0.0 | 1.6 | 0.00 | 0.03 | 0.03 | 37 | 1013.9 |
| 20260507212925 | 13 | 21 | 4.8 | 4.8 | 0.00 | 0.03 | 0.03 | 36 | 1013.7 |
| 20260507211923 | 14 | 336 | 6.4 | 9.7 | 0.00 | 0.03 | 0.03 | 35 | 1013.7 |
| 20260507210923 | 13 | 353 | 0.0 | 1.6 | 0.00 | 0.03 | 0.03 | 38 | 1013.7 |
| 20260507205922 | 14 | 305 | 1.6 | 3.2 | 0.00 | 0.03 | 0.03 | 33 | 1013.4 |
| 20260507204921 | 14 | 332 | 1.6 | 3.2 | 0.00 | 0.03 | 0.03 | 35 | 1013.4 |
| 20260507203922 | 14 | 19 | 0.0 | 0.0 | 0.00 | 0.03 | 0.03 | 37 | 1013.2 |
| 20260507202922 | 15 | 276 | 1.6 | 4.8 | 0.00 | 0.03 | 0.03 | 34 | 1013.6 |
| 20260507201920 | 15 | 34 | 3.2 | 3.2 | 0.00 | 0.03 | 0.03 | 37 | 1013.5 |
| 20260507200918 | 14 | 276 | 0.0 | 0.0 | 0.00 | 0.03 | 0.03 | 36 | 1013.5 |
| 20260507195916 | 15 | 296 | 0.0 | 0.0 | 0.00 | 0.03 | 0.03 | 36 | 1013.5 |
| 20260507194910 | 13 | 338 | 0.0 | 1.6 | 0.00 | 0.03 | 0.03 | 37 | 1013.6 |
| 20260507193908 | 15 | 283 | 3.2 | 4.8 | 0.00 | 0.03 | 0.03 | 37 | 1013.7 |
| 20260507192908 | 14 | 234 | 0.0 | 3.2 | 0.00 | 0.03 | 0.03 | 38 | 1013.5 |
| 20260507191907 | 13 | 340 | 0.0 | 0.0 | 0.00 | 0.03 | 0.03 | 40 | 1014.0 |
| 20260507190905 | 13 | 358 | 0.0 | 0.0 | 0.00 | 0.03 | 0.03 | 41 | 1013.6 |
| 20260507185902 | 13 | 9 | 1.6 | 3.2 | 0.00 | 0.03 | 0.03 | 39 | 1013.8 |
| 20260507184901 | 14 | 310 | 0.0 | 1.6 | 0.00 | 0.03 | 0.03 | 38 | 1013.9 |
| 20260507183856 | 15 | 19 | 0.0 | 0.0 | 0.00 | 0.03 | 0.03 | 41 | 1013.9 |
| 20260507182850 | 13 | 286 | 1.6 | 1.6 | 0.00 | 0.03 | 0.03 | 38 | 1013.9 |
| 20260507181848 | 15 | 337 | 0.0 | 0.0 | 0.00 | 0.03 | 0.03 | 38 | 1014.1 |
| 20260507180847 | 13 | 60 | 0.0 | 1.6 | 0.00 | 0.03 | 0.03 | 43 | 1014.1 |
| 20260507175845 | 13 | 41 | 0.0 | 1.6 | 0.00 | 0.03 | 0.03 | 44 | 1014.3 |
| 20260507174840 | 13 | 203 | 8.0 | 9.7 | 0.00 | 0.03 | 0.03 | 42 | 1014.2 |
| 20260507173840 | 15 | 28 | 1.6 | 3.2 | 0.00 | 0.03 | 0.03 | 43 | 1014.3 |
| 20260507172839 | 15 | 295 | 0.0 | 0.0 | 0.00 | 0.03 | 0.03 | 41 | 1014.3 |
| 20260507171837 | 14 | 323 | 1.6 | 3.2 | 0.00 | 0.03 | 0.03 | 45 | 1014.4 |
| 20260507170837 | 15 | 353 | 1.6 | 1.6 | 0.00 | 0.03 | 0.03 | 43 | 1014.4 |
| 20260507165835 | 14 | 283 | 6.4 | 11.3 | 0.00 | 0.03 | 0.03 | 47 | 1014.3 |
| 20260507164833 | 13 | 327 | 1.6 | 8.0 | 0.00 | 0.03 | 0.03 | 56 | 1014.6 |
| 20260507163833 | 12 | 38 | 1.6 | 3.2 | 0.00 | 0.03 | 0.03 | 63 | 1014.9 |
| 20260507162833 | 13 | 8 | 0.0 | 1.6 | 0.00 | 0.03 | 0.03 | 60 | 1015.0 |
| 20260507161831 | 12 | 355 | 0.0 | 0.0 | 0.00 | 0.03 | 0.03 | 63 | 1015.3 |
| 20260507160830 | 12 | 347 | 0.0 | 0.0 | 0.00 | 0.03 | 0.03 | 59 | 1015.2 |
| 20260507155828 | 12 | 299 | 0.0 | 0.0 | 0.00 | 0.03 | 0.03 | 61 | 1015.3 |
| 20260507154827 | 13 | 9 | 0.0 | 0.0 | 0.00 | 0.03 | 0.03 | 58 | 1015.1 |
| 20260507153827 | 13 | 346 | 0.0 | 1.6 | 0.00 | 0.03 | 0.03 | 59 | 1015.1 |
| 20260507152826 | 13 | 313 | 0.0 | 0.0 | 0.00 | 0.03 | 0.03 | 59 | 1015.1 |
| 20260507151824 | 12 | 4 | 0.0 | 0.0 | 0.00 | 0.03 | 0.03 | 60 | 1015.3 |
| 20260507150824 | 12 | 352 | 0.0 | 0.0 | 0.00 | 0.03 | 0.03 | 63 | 1015.4 |
| 20260507145822 | 12 | 307 | 0.0 | 0.0 | 0.00 | 0.03 | 0.03 | 60 | 1015.2 |
| 20260507144822 | 12 | 340 | 0.0 | 0.0 | 0.00 | 0.03 | 0.03 | 60 | 1015.3 |
| 20260507143821 | 12 | 71 | 0.0 | 0.0 | 0.00 | 0.03 | 0.03 | 62 | 1015.3 |
| 20260507142821 | 13 | 352 | 0.0 | 0.0 | 0.00 | 0.03 | 0.03 | 57 | 1015.3 |
| 20260507141820 | 13 | 244 | 0.0 | 0.0 | 0.00 | 0.03 | 0.03 | 57 | 1015.3 |
| 20260507140819 | 12 | 62 | 0.0 | 0.0 | 0.00 | 0.03 | 0.03 | 60 | 1015.2 |
| 20260507135814 | 13 | 36 | 0.0 | 0.0 | 0.00 | 0.03 | 0.03 | 58 | 1015.3 |
| 20260507134813 | 13 | 304 | 0.0 | 1.6 | 0.00 | 0.03 | 0.03 | 60 | 1015.3 |
| 20260507133811 | 12 | 301 | 0.0 | 0.0 | 0.00 | 0.03 | 0.03 | 67 | 1015.5 |
| 20260507132811 | 12 | 359 | 0.0 | 0.0 | 0.00 | 0.03 | 0.03 | 65 | 1015.5 |
| 20260507131811 | 12 | 325 | 0.0 | 0.0 | 0.00 | 0.03 | 0.03 | 65 | 1015.9 |
| 20260507130810 | 11 | 40 | 0.0 | 0.0 | 0.00 | 0.03 | 0.03 | 67 | 1016.0 |
| 20260507125806 | 11 | 296 | 0.0 | 1.6 | 0.00 | 0.03 | 0.03 | 70 | 1015.8 |
| 20260507124806 | 10 | 34 | 0.0 | 0.0 | 0.00 | 0.03 | 0.03 | 73 | 1015.7 |
| 20260507123801 | 10 | 22 | 0.0 | 0.0 | 0.00 | 0.03 | 0.03 | 79 | 1016.0 |
| 20260507122800 | 9 | 36 | 0.0 | 0.0 | 0.00 | 0.03 | 0.03 | 78 | 1016.0 |
| 20260507121757 | 8 | 11 | 0.0 | 0.0 | 0.00 | 0.03 | 0.03 | 80 | 1016.0 |
| 20260507120756 | 8 | 320 | 0.0 | 0.0 | 0.00 | 0.03 | 0.03 | 81 | 1016.3 |
| 20260507115755 | 7 | 348 | 0.0 | 0.0 | 0.00 | 0.03 | 0.03 | 92 | 1016.1 |
| 20260507114752 | 6 | 31 | 0.0 | 0.0 | 0.00 | 0.03 | 0.03 | 98 | 1016.2 |
| 20260507113747 | 6 | 29 | 0.0 | 0.0 | 0.00 | 0.03 | 0.03 | 98 | 1016.2 |
| 20260507112747 | 6 | 34 | 0.0 | 0.0 | 0.00 | 0.03 | 0.03 | 98 | 1016.1 |
| 20260507111742 | 6 | 28 | 0.0 | 0.0 | 0.00 | 0.03 | 0.03 | 98 | 1016.2 |
| 20260507110740 | 5 | 27 | 0.0 | 0.0 | 0.00 | 0.03 | 0.03 | 98 | 1016.1 |
| 20260507105740 | 5 | 26 | 0.0 | 0.0 | 0.00 | 0.03 | 0.03 | 98 | 1016.0 |
| 20260507104739 | 5 | 20 | 0.0 | 0.0 | 0.00 | 0.03 | 0.03 | 98 | 1016.1 |
| 20260507103737 | 5 | 8 | 0.0 | 0.0 | 0.00 | 0.03 | 0.03 | 98 | 1016.3 |
| 20260507102736 | 5 | 7 | 0.0 | 0.0 | 0.00 | 0.03 | 0.03 | 98 | 1016.3 |
| 20260507101735 | 5 | 348 | 0.0 | 0.0 | 0.00 | 0.03 | 0.03 | 98 | 1016.4 |
| 20260507100734 | 5 | 3 | 0.0 | 0.0 | 0.00 | 0.03 | 0.03 | 98 | 1016.2 |
| 20260507095729 | 5 | 3 | 0.0 | 0.0 | 0.00 | 0.03 | 0.03 | 98 | 1015.8 |
| 20260507094729 | 5 | 352 | 0.0 | 0.0 | 0.00 | 0.03 | 0.03 | 98 | 1015.9 |
| 20260507093728 | 5 | 15 | 0.0 | 0.0 | 0.00 | 0.03 | 0.03 | 97 | 1016.0 |
| 20260507092724 | 6 | 21 | 0.0 | 0.0 | 0.00 | 0.03 | 0.03 | 97 | 1015.9 |
| 20260507091722 | 6 | 9 | 0.0 | 0.0 | 0.00 | 0.03 | 0.03 | 97 | 1015.5 |
| 20260507090719 | 6 | 10 | 0.0 | 0.0 | 0.00 | 0.03 | 0.03 | 97 | 1015.8 |
| 20260507085719 | 6 | 9 | 0.0 | 0.0 | 0.00 | 0.03 | 0.03 | 97 | 1015.3 |
| 20260507084719 | 7 | 18 | 0.0 | 0.0 | 0.00 | 0.03 | 0.03 | 96 | 1015.9 |
| 20260507083718 | 7 | 335 | 0.0 | 0.0 | 0.00 | 0.03 | 0.03 | 96 | 1016.0 |
| 20260507082716 | 7 | 336 | 0.0 | 0.0 | 0.00 | 0.03 | 0.03 | 96 | 1016.0 |
| 20260507081714 | 7 | 330 | 0.0 | 0.0 | 0.00 | 0.03 | 0.03 | 95 | 1015.9 |
| 20260507080713 | 7 | 330 | 0.0 | 0.0 | 0.00 | 0.03 | 0.03 | 95 | 1015.7 |
| 20260507075710 | 7 | 296 | 0.0 | 0.0 | 0.00 | 0.03 | 0.03 | 94 | 1015.0 |
| 20260507074709 | 7 | 332 | 0.0 | 0.0 | 0.00 | 0.03 | 0.03 | 94 | 1014.9 |
| 20260507073704 | 7 | 337 | 0.0 | 0.0 | 0.00 | 0.03 | 0.03 | 93 | 1015.0 |
| 20260507072704 | 7 | 246 | 0.0 | 0.0 | 0.00 | 0.03 | 0.03 | 94 | 1015.2 |
| 20260507071659 | 7 | 242 | 0.0 | 0.0 | 0.00 | 0.03 | 0.03 | 93 | 1015.3 |
| 20260507070659 | 7 | 11 | 0.0 | 0.0 | 0.00 | 0.03 | 0.03 | 94 | 1015.0 |
| 20260507065657 | 7 | 347 | 0.0 | 0.0 | 0.00 | 0.03 | 0.03 | 95 | 1014.7 |
| 20260507064657 | 7 | 17 | 0.0 | 0.0 | 0.00 | 0.03 | 0.03 | 95 | 1014.8 |
| 20260507063653 | 7 | 351 | 0.0 | 0.0 | 0.00 | 0.03 | 0.03 | 96 | 1014.5 |
| 20260507062652 | 7 | 350 | 0.0 | 0.0 | 0.00 | 0.03 | 0.03 | 97 | 1014.6 |
| 20260507061648 | 7 | 6 | 0.0 | 1.6 | 0.00 | 0.03 | 0.03 | 97 | 1014.6 |
| 20260507060643 | 8 | 37 | 0.0 | 0.0 | 0.00 | 0.03 | 0.03 | 98 | 1014.3 |
| 20260507055641 | 8 | 29 | 0.0 | 0.0 | 0.00 | 0.03 | 0.03 | 97 | 1014.3 |
| 20260507054639 | 8 | 353 | 0.0 | 0.0 | 0.00 | 0.03 | 0.03 | 98 | 1014.4 |
| 20260507053634 | 8 | 37 | 1.6 | 1.6 | 0.00 | 0.03 | 0.03 | 97 | 1014.1 |
| 20260507052630 | 8 | 346 | 0.0 | 0.0 | 0.00 | 0.03 | 0.03 | 97 | 1014.2 |
| 20260507051630 | 8 | 314 | 0.0 | 0.0 | 0.00 | 0.03 | 0.03 | 97 | 1014.0 |
| 20260507050629 | 8 | 212 | 0.0 | 0.0 | 0.00 | 0.03 | 0.03 | 97 | 1014.1 |
| 20260507045629 | 8 | 289 | 0.0 | 0.0 | 0.00 | 0.03 | 0.03 | 97 | 1014.1 |
| 20260507044628 | 8 | 337 | 0.0 | 0.0 | 0.00 | 0.03 | 0.03 | 96 | 1014.0 |
| 20260507043626 | 9 | 354 | 0.0 | 0.0 | 0.00 | 0.03 | 0.03 | 96 | 1013.9 |
| 20260507042626 | 9 | 355 | 0.0 | 0.0 | 0.00 | 0.03 | 0.03 | 96 | 1014.3 |
| 20260507041624 | 9 | 7 | 0.0 | 0.0 | 0.00 | 0.03 | 0.03 | 96 | 1014.2 |
| 20260507040624 | 9 | 346 | 0.0 | 1.6 | 0.18 | 0.03 | 0.03 | 96 | 1014.1 |
| 20260507035622 | 9 | 352 | 0.0 | 0.0 | 0.00 | 2.67 | 2.67 | 96 | 1014.1 |
| 20260507034621 | 10 | 26 | 1.6 | 3.2 | 0.13 | 2.67 | 2.67 | 96 | 1014.2 |
| 20260507033617 | 10 | 37 | 1.6 | 1.6 | 0.18 | 2.64 | 2.64 | 95 | 1014.0 |
| 20260507032616 | 10 | 341 | 3.2 | 3.2 | 0.00 | 2.62 | 2.62 | 95 | 1013.8 |
| 20260507031615 | 10 | 339 | 1.6 | 3.2 | 0.00 | 2.62 | 2.62 | 96 | 1013.4 |
| 20260507030614 | 10 | 334 | 1.6 | 1.6 | 0.00 | 2.62 | 2.62 | 97 | 1013.6 |
| 20260507025609 | 11 | 11 | 0.0 | 0.0 | 0.00 | 2.62 | 2.62 | 97 | 1013.6 |
| 20260507024604 | 11 | 11 | 0.0 | 0.0 | 0.00 | 2.62 | 2.62 | 98 | 1013.5 |
| 20260507023602 | 11 | 356 | 1.6 | 3.2 | 0.00 | 2.62 | 2.62 | 97 | 1013.5 |
| 20260507022557 | 11 | 354 | 0.0 | 0.0 | 0.13 | 2.62 | 2.62 | 98 | 1013.4 |
| 20260507021554 | 12 | 32 | 0.0 | 0.0 | 0.00 | 2.59 | 2.59 | 98 | 1013.2 |
| 20260507020549 | 12 | 340 | 1.6 | 3.2 | 0.18 | 2.59 | 2.59 | 98 | 1013.3 |
| 20260507015549 | 12 | 349 | 0.0 | 0.0 | 0.18 | 2.57 | 2.57 | 98 | 1013.2 |
| 20260507014549 | 12 | 9 | 0.0 | 0.0 | 0.00 | 2.54 | 2.54 | 98 | 1013.2 |
| 20260507013547 | 12 | 327 | 0.0 | 0.0 | 0.00 | 2.54 | 2.54 | 98 | 1013.2 |
| 20260507012542 | 13 | 344 | 0.0 | 0.0 | 0.00 | 2.54 | 2.54 | 98 | 1013.1 |
| 20260507011541 | 13 | 355 | 0.0 | 0.0 | 0.13 | 2.54 | 2.54 | 98 | 1013.2 |
| 20260507010538 | 13 | 355 | 0.0 | 0.0 | 0.00 | 2.51 | 2.51 | 98 | 1013.1 |
| 20260507005532 | 15 | 12 | 0.0 | 0.0 | 0.00 | 2.51 | 2.51 | 98 | 1012.9 |
| 20260507004531 | 15 | 12 | 0.0 | 0.0 | 0.00 | 2.51 | 2.51 | 98 | 1012.7 |
| 20260507003530 | 15 | 20 | 0.0 | 0.0 | 0.00 | 2.51 | 2.51 | 98 | 1012.8 |
| 20260507002528 | 15 | 22 | 0.0 | 0.0 | 0.00 | 2.51 | 2.51 | 98 | 1012.8 |
| 20260507001526 | 15 | 27 | 0.0 | 0.0 | 0.00 | 2.51 | 2.51 | 98 | 1012.7 |
| 20260507000526 | 15 | 44 | 0.0 | 0.0 | 0.00 | 2.51 | 2.51 | 98 | 1012.8 |
| 20260506235525 | 15 | 21 | 0.0 | 0.0 | 0.00 | 2.51 | 2.51 | 98 | 1012.6 |
| 20260506234524 | 15 | 281 | 0.0 | 0.0 | 0.18 | 2.51 | 2.51 | 98 | 1012.4 |
| 20260506233524 | 15 | 58 | 0.0 | 0.0 | 0.30 | 2.49 | 2.49 | 98 | 1012.4 |
| 20260506232523 | 15 | 20 | 0.0 | 0.0 | 0.13 | 2.44 | 2.44 | 98 | 1012.1 |
| 20260506231522 | 15 | 31 | 0.0 | 0.0 | 0.30 | 2.41 | 2.41 | 98 | 1012.1 |
| 20260506230521 | 15 | 22 | 0.0 | 0.0 | 0.30 | 2.36 | 2.36 | 97 | 1012.3 |
| 20260506225516 | 15 | 9 | 0.0 | 0.0 | 0.18 | 2.31 | 2.31 | 97 | 1012.4 |
| 20260506224515 | 15 | 349 | 0.0 | 0.0 | 0.13 | 2.29 | 2.29 | 97 | 1012.2 |
| 20260506223512 | 15 | 6 | 0.0 | 0.0 | 0.48 | 2.26 | 2.26 | 97 | 1012.4 |
| 20260506222511 | 15 | 234 | 0.0 | 0.0 | 0.30 | 2.18 | 2.18 | 97 | 1012.6 |
| 20260506221510 | 15 | 261 | 0.0 | 0.0 | 0.18 | 2.13 | 2.13 | 97 | 1012.4 |
| 20260506220508 | 15 | 260 | 0.0 | 0.0 | 0.30 | 2.11 | 2.11 | 97 | 1013.0 |
| 20260506215507 | 15 | 294 | 0.0 | 0.0 | 0.13 | 2.06 | 2.06 | 97 | 1012.9 |
| 20260506214505 | 15 | 357 | 0.0 | 0.0 | 0.30 | 2.03 | 2.03 | 97 | 1013.2 |